createdAt,value
2022-09-30T00:02:18.754Z,5.78
2022-09-30T00:12:27.464Z,5.76
2022-09-30T00:22:34.478Z,5.67
2022-09-30T00:32:41.563Z,5.62
2022-09-30T00:42:49.937Z,5.54
2022-09-30T00:52:55.802Z,5.50
2022-09-30T01:03:02.465Z,5.44
2022-09-30T01:13:09.943Z,5.35
2022-09-30T01:23:36.289Z,5.34
2022-09-30T01:33:54.240Z,5.38
2022-09-30T01:43:59.935Z,5.25
2022-09-30T01:54:08.777Z,5.12
2022-09-30T02:04:21.316Z,5.12
2022-09-30T02:14:33.492Z,5.24
2022-09-30T02:24:41.855Z,5.50
2022-09-30T02:34:46.837Z,5.54
2022-09-30T02:44:57.786Z,5.50
2022-09-30T02:55:05.748Z,5.57
2022-09-30T03:05:10.672Z,5.71
2022-09-30T03:15:31.557Z,5.74
2022-09-30T03:25:37.938Z,5.81
2022-09-30T03:35:55.441Z,5.99
2022-09-30T03:46:05.840Z,5.90
2022-09-30T03:56:12.927Z,5.91
2022-09-30T04:06:22.886Z,6.05
2022-09-30T04:16:31.665Z,6.20
2022-09-30T04:26:39.341Z,6.44
2022-09-30T04:36:46.970Z,6.38
2022-09-30T04:46:54.608Z,6.27
2022-09-30T04:57:02.006Z,6.25
2022-09-30T05:07:09.437Z,6.49
2022-09-30T05:17:16.713Z,6.67
2022-09-30T05:27:24.089Z,6.85
2022-09-30T05:37:30.225Z,7.00
2022-09-30T05:47:37.652Z,6.99
2022-09-30T05:57:48.466Z,7.09
2022-09-30T06:07:55.966Z,7.22
2022-09-30T06:18:03.150Z,7.41
2022-09-30T06:28:10.346Z,7.55
2022-09-30T06:38:18.322Z,7.61
2022-09-30T06:48:37.012Z,7.61
2022-09-30T06:58:45.076Z,7.67
2022-09-30T07:08:52.972Z,7.83
2022-09-30T07:18:59.658Z,8.03
2022-09-30T07:29:06.057Z,8.28
2022-09-30T07:39:14.045Z,8.40
2022-09-30T07:49:21.078Z,8.48
2022-09-30T07:59:29.128Z,8.66
2022-09-30T08:09:36.787Z,8.78
2022-09-30T08:19:44.191Z,8.92
2022-09-30T08:29:56.086Z,9.07
2022-09-30T08:40:06.012Z,9.21
2022-09-30T08:50:13.557Z,9.44
2022-09-30T09:00:22.694Z,9.63
2022-09-30T09:10:35.665Z,9.68
2022-09-30T09:20:51.694Z,9.60
2022-09-30T09:30:59.300Z,9.61
2022-09-30T09:41:16.364Z,9.60
2022-09-30T09:51:30.567Z,9.60
2022-09-30T10:01:40.044Z,9.68
2022-09-30T10:11:47.339Z,9.77
2022-09-30T10:22:17.621Z,9.83
2022-09-30T10:32:26.818Z,9.99
2022-09-30T10:42:37.083Z,10.10
2022-09-30T10:52:57.658Z,10.14
2022-09-30T11:03:06.751Z,10.17
2022-09-30T11:13:17.366Z,10.15
2022-09-30T11:23:27.869Z,10.11
2022-09-30T11:33:33.661Z,10.03
2022-09-30T11:43:39.527Z,10.00
2022-09-30T12:03:51.060Z,9.93
2022-09-30T12:14:02.854Z,9.93
2022-09-30T12:24:15.969Z,9.89
2022-09-30T12:34:33.556Z,9.80
2022-09-30T12:45:08.269Z,9.80
2022-09-30T12:55:18.273Z,9.81
2022-09-30T13:05:43.822Z,9.80
2022-09-30T13:15:51.446Z,9.78
2022-09-30T13:25:59.042Z,9.79
2022-09-30T13:36:17.050Z,9.82
2022-09-30T13:46:24.381Z,9.95
2022-09-30T13:56:35.527Z,10.00
2022-09-30T14:06:48.462Z,10.02
2022-09-30T14:17:17.044Z,10.02
2022-09-30T14:27:42.656Z,9.94
2022-09-30T14:37:47.981Z,9.97
2022-09-30T14:47:58.729Z,9.90
2022-09-30T14:58:18.340Z,9.79
2022-09-30T15:08:26.371Z,9.79
2022-09-30T15:18:35.845Z,9.68
2022-09-30T15:28:41.554Z,9.55
2022-09-30T15:38:48.584Z,9.46
2022-09-30T15:48:55.736Z,9.47
2022-09-30T16:09:19.064Z,9.45
2022-09-30T16:19:26.808Z,9.45
2022-09-30T16:29:35.057Z,9.55
2022-09-30T16:39:42.454Z,9.64
2022-09-30T16:49:51.706Z,9.64
2022-09-30T16:59:59.314Z,9.70
2022-09-30T17:10:06.214Z,9.62
2022-09-30T17:20:11.253Z,9.56
2022-09-30T17:30:23.471Z,9.50
2022-09-30T17:40:48.663Z,9.45
2022-09-30T17:50:56.001Z,9.45
2022-09-30T18:01:08.027Z,9.47
2022-09-30T18:11:20.370Z,9.51
2022-09-30T18:21:28.518Z,9.47
2022-09-30T18:31:39.618Z,9.52
2022-09-30T18:41:49.121Z,9.61
2022-09-30T18:51:56.732Z,9.77
2022-09-30T19:02:05.229Z,9.83
2022-09-30T19:12:13.998Z,9.73
2022-09-30T19:22:20.710Z,9.59
2022-09-30T19:32:29.218Z,9.47
2022-09-30T19:42:38.147Z,9.39
2022-09-30T19:52:56.144Z,9.35
2022-09-30T20:03:08.316Z,9.35
2022-09-30T20:13:17.810Z,9.41
2022-09-30T20:23:22.638Z,9.44
2022-09-30T20:33:29.936Z,9.42
2022-09-30T20:43:37.205Z,9.38
2022-09-30T20:53:48.903Z,9.43
2022-09-30T21:03:56.621Z,9.53
2022-09-30T21:14:03.960Z,9.67
2022-09-30T21:24:10.086Z,9.81
2022-09-30T21:34:17.566Z,9.90
2022-09-30T21:44:25.797Z,9.76
2022-09-30T21:54:32.850Z,9.60
2022-09-30T22:04:39.066Z,9.62
2022-09-30T22:14:45.551Z,9.58
2022-09-30T22:24:53.049Z,9.60
2022-09-30T22:35:17.532Z,9.58
2022-09-30T22:45:24.995Z,9.59
2022-09-30T22:55:33.409Z,9.74
2022-09-30T23:05:40.517Z,9.66
2022-09-30T23:15:47.782Z,9.64
2022-09-30T23:25:59.966Z,9.67
2022-09-30T23:36:08.841Z,9.67
2022-09-30T23:46:16.992Z,9.75
2022-09-30T23:56:24.120Z,9.94
